Terminal Aerodrome Forecast
Issued by NWS Nashville, TN

Current Version | Previous Version | Text Only | Print | Product List | Glossary Off
Versions: 1 2 3 4 5 6 7 8 9 10 11 12 13 14 15

946
FTUS44 KOHX 280524
TAFCSV
TAF
KCSV 280524Z 2806/2906 00000KT P6SM SKC
     FM281000 00000KT 4SM BR SKC
     FM281100 00000KT 2SM BR SKC
     FM281300 VRB02KT P6SM SKC
     FM282000 02003KT P6SM SCT040 BKN100 PROB30 2820/2824 5SM -TSRA
      OVC035CB=

USA.gov is the U.S. government's official web portal to all federal, state and local government web resources and services.